createdAt,value
2023-01-07T00:01:20.969Z,69.10
2023-01-07T00:03:48.847Z,69.65
2023-01-07T00:06:36.534Z,67.25
2023-01-07T00:09:05.001Z,69.47
2023-01-07T00:11:34.239Z,69.26
2023-01-07T00:14:01.734Z,69.91
2023-01-07T00:16:31.120Z,69.46
2023-01-07T00:18:59.686Z,69.48
2023-01-07T00:21:28.260Z,69.52
2023-01-07T00:24:00.137Z,69.75
2023-01-07T00:26:33.738Z,68.89
2023-01-07T00:29:00.391Z,69.75
2023-01-07T00:31:30.084Z,69.18
2023-01-07T00:33:56.973Z,69.19
2023-01-07T00:36:25.629Z,68.98
2023-01-07T00:38:56.721Z,67.66
2023-01-07T00:41:24.210Z,69.10
2023-01-07T00:43:51.540Z,69.33
2023-01-07T00:46:18.222Z,69.38
2023-01-07T00:48:45.513Z,69.45
2023-01-07T00:51:14.117Z,69.36
2023-01-07T00:53:41.111Z,69.76
2023-01-07T00:56:09.895Z,69.44
2023-01-07T00:58:36.687Z,69.84
2023-01-07T01:01:04.554Z,69.64
2023-01-07T01:03:32.448Z,69.81
2023-01-07T01:06:07.943Z,67.69
2023-01-07T01:08:34.539Z,69.88
2023-01-07T01:11:08.798Z,68.49
2023-01-07T01:13:35.837Z,69.72
2023-01-07T01:16:07.670Z,68.36
2023-01-07T01:18:34.308Z,69.84
2023-01-07T01:21:06.620Z,68.54
2023-01-07T01:23:33.852Z,69.71
2023-01-07T01:26:04.378Z,68.34
2023-01-07T01:28:31.712Z,69.75
2023-01-07T01:30:58.387Z,69.80
2023-01-07T01:33:29.757Z,69.97
2023-01-07T01:35:56.689Z,69.85
2023-01-07T01:38:23.296Z,69.88
2023-01-07T01:40:50.263Z,69.85
2023-01-07T01:43:38.819Z,67.74
2023-01-07T01:46:16.225Z,68.16
2023-01-07T01:49:00.390Z,67.76
2023-01-07T01:51:31.524Z,69.62
2023-01-07T01:53:58.137Z,70.13
2023-01-07T01:56:29.509Z,69.04
2023-01-07T01:59:04.329Z,68.42
2023-01-07T02:01:35.860Z,69.50
2023-01-07T02:04:12.236Z,68.98
2023-01-07T02:06:53.910Z,67.88
2023-01-07T02:09:20.972Z,69.88
2023-01-07T02:12:00.119Z,68.20
2023-01-07T02:15:00.112Z,67.72
2023-01-07T02:17:57.825Z,67.58
2023-01-07T02:20:30.079Z,70.21
2023-01-07T02:23:18.095Z,67.83
2023-01-07T02:25:44.931Z,70.19
2023-01-07T02:28:23.942Z,70.23
2023-01-07T02:31:07.950Z,70.14
2023-01-07T02:33:55.350Z,67.50
2023-01-07T02:36:32.159Z,67.98
2023-01-07T02:39:34.424Z,67.05
2023-01-07T02:42:13.492Z,67.86
2023-01-07T02:45:27.205Z,66.74
2023-01-07T02:48:00.289Z,68.44
2023-01-07T02:50:26.916Z,69.65
2023-01-07T02:52:54.034Z,69.62
2023-01-07T02:55:54.835Z,66.68
2023-01-07T02:58:41.561Z,69.65
2023-01-07T03:01:21.439Z,69.54
2023-01-07T03:03:56.670Z,66.99
2023-01-07T03:06:32.273Z,68.29
2023-01-07T03:09:27.132Z,66.82
2023-01-07T03:12:33.948Z,66.73
2023-01-07T03:15:23.124Z,67.02
2023-01-07T03:18:00.900Z,67.41
2023-01-07T03:20:29.501Z,69.54
2023-01-07T03:22:58.405Z,68.96
2023-01-07T03:25:28.426Z,68.67
2023-01-07T03:27:57.820Z,68.92
2023-01-07T03:30:25.271Z,69.13
2023-01-07T03:32:58.683Z,68.30
2023-01-07T03:35:26.464Z,68.86
2023-01-07T03:37:53.438Z,68.92
2023-01-07T03:40:20.831Z,68.96
2023-01-07T03:42:48.228Z,66.90
2023-01-07T03:45:24.149Z,68.71
2023-01-07T03:47:54.717Z,68.68
2023-01-07T03:50:23.648Z,68.67
2023-01-07T03:52:51.415Z,68.86
2023-01-07T03:55:19.485Z,65.07
2023-01-07T03:57:47.689Z,68.74
2023-01-07T04:00:15.014Z,68.93
2023-01-07T04:02:44.439Z,68.90
2023-01-07T04:05:20.404Z,68.91
2023-01-07T04:07:47.691Z,68.92
2023-01-07T04:10:14.479Z,69.07
2023-01-07T04:12:42.144Z,68.79
2023-01-07T04:15:09.088Z,68.79
2023-01-07T04:17:35.631Z,68.76
2023-01-07T04:20:02.346Z,68.76
2023-01-07T04:22:28.908Z,68.81
2023-01-07T04:24:55.547Z,68.80
2023-01-07T04:27:22.041Z,68.83
2023-01-07T04:29:48.788Z,68.76
2023-01-07T04:32:15.705Z,68.91
2023-01-07T04:34:42.511Z,68.71
2023-01-07T04:37:09.578Z,68.54
2023-01-07T04:39:36.167Z,68.33
2023-01-07T04:42:02.779Z,68.16
2023-01-07T04:44:29.666Z,67.97
2023-01-07T04:46:56.855Z,67.84
2023-01-07T04:49:24.346Z,67.31
2023-01-07T04:51:51.877Z,67.20
2023-01-07T04:54:18.937Z,67.52
2023-01-07T04:56:45.693Z,67.39
2023-01-07T04:59:12.789Z,67.39
2023-01-07T05:01:40.372Z,67.51
2023-01-07T05:04:08.193Z,67.15
2023-01-07T05:06:35.719Z,67.08
2023-01-07T05:09:02.996Z,67.24
2023-01-07T05:11:31.215Z,67.22
2023-01-07T05:14:00.530Z,66.98
2023-01-07T05:16:30.065Z,67.30
2023-01-07T05:19:00.148Z,67.28
2023-01-07T05:21:27.540Z,67.35
2023-01-07T05:23:54.124Z,67.36
2023-01-07T05:26:21.576Z,67.62
2023-01-07T05:28:48.513Z,67.54
2023-01-07T05:31:15.861Z,67.57
2023-01-07T05:33:43.289Z,67.69
2023-01-07T05:36:10.312Z,67.44
2023-01-07T05:38:36.896Z,67.38
2023-01-07T05:41:04.293Z,67.50
2023-01-07T05:43:31.912Z,67.28
2023-01-07T05:45:58.465Z,67.39
2023-01-07T05:48:25.456Z,67.37
2023-01-07T05:50:52.004Z,67.14
2023-01-07T05:53:18.682Z,67.05
2023-01-07T05:55:45.458Z,66.95
2023-01-07T05:58:12.212Z,66.95
2023-01-07T06:00:38.832Z,67.16
2023-01-07T06:03:05.833Z,67.01
2023-01-07T06:05:32.728Z,67.00
2023-01-07T06:07:59.308Z,67.17
2023-01-07T06:10:25.801Z,67.26
2023-01-07T06:12:52.280Z,67.22
2023-01-07T06:15:18.937Z,67.13
2023-01-07T06:17:45.523Z,67.11
2023-01-07T06:20:12.593Z,67.02
2023-01-07T06:22:39.330Z,67.08
2023-01-07T06:25:05.911Z,67.16
2023-01-07T06:27:32.497Z,67.13
2023-01-07T06:29:59.097Z,66.94
2023-01-07T06:32:25.871Z,67.15
2023-01-07T06:34:52.412Z,67.08
2023-01-07T06:37:18.994Z,67.10
2023-01-07T06:39:45.489Z,67.06
2023-01-07T06:42:12.071Z,67.21
2023-01-07T06:44:38.606Z,67.07
2023-01-07T06:47:05.171Z,67.08
2023-01-07T06:49:31.759Z,67.02
2023-01-07T06:51:58.232Z,67.02
2023-01-07T06:54:24.889Z,67.20
2023-01-07T06:56:51.446Z,67.40
2023-01-07T06:59:17.907Z,67.34
2023-01-07T07:01:46.427Z,67.33
2023-01-07T07:04:13.436Z,67.39
2023-01-07T07:06:39.989Z,67.61
2023-01-07T07:09:06.620Z,67.66
2023-01-07T07:11:33.144Z,67.71
2023-01-07T07:13:59.699Z,67.87
2023-01-07T07:16:26.505Z,67.78
2023-01-07T07:18:53.826Z,67.85
2023-01-07T07:21:20.319Z,67.92
2023-01-07T07:23:46.892Z,67.77
2023-01-07T07:26:13.875Z,67.94
2023-01-07T07:28:40.352Z,67.78
2023-01-07T07:31:07.092Z,67.95
2023-01-07T07:33:33.570Z,67.85
2023-01-07T07:36:00.414Z,68.00
2023-01-07T07:38:26.860Z,67.88
2023-01-07T07:40:53.431Z,68.04
2023-01-07T07:43:20.297Z,68.16
2023-01-07T07:45:46.777Z,68.17
2023-01-07T07:48:14.670Z,68.29
2023-01-07T07:50:41.595Z,68.14
2023-01-07T07:53:08.410Z,68.30
2023-01-07T07:55:36.866Z,68.45
2023-01-07T07:58:03.423Z,68.55
2023-01-07T08:00:29.969Z,68.80
2023-01-07T08:02:59.932Z,68.10
2023-01-07T08:05:27.715Z,69.01
2023-01-07T08:07:54.450Z,69.16
2023-01-07T08:10:21.019Z,69.34
2023-01-07T08:12:48.090Z,69.56
2023-01-07T08:15:14.724Z,69.63
2023-01-07T08:17:41.313Z,69.99
2023-01-07T08:20:08.884Z,69.96
2023-01-07T08:22:35.441Z,70.17
2023-01-07T08:25:02.450Z,70.41
2023-01-07T08:27:29.565Z,70.42
2023-01-07T08:29:56.760Z,70.55
2023-01-07T08:32:23.352Z,70.58
2023-01-07T08:34:50.019Z,70.84
2023-01-07T08:37:16.891Z,70.37
2023-01-07T08:39:43.386Z,71.03
2023-01-07T08:42:09.906Z,71.00
2023-01-07T08:44:36.504Z,71.27
2023-01-07T08:47:03.030Z,71.18
2023-01-07T08:49:29.631Z,71.17
2023-01-07T08:51:56.101Z,70.97
2023-01-07T08:54:22.579Z,70.88
2023-01-07T08:56:49.197Z,70.90
2023-01-07T08:59:15.713Z,70.69
2023-01-07T09:01:42.326Z,71.40
2023-01-07T09:04:09.036Z,70.61
2023-01-07T09:06:35.550Z,70.88
2023-01-07T09:09:02.051Z,70.85
2023-01-07T09:11:28.716Z,71.42
2023-01-07T09:13:55.257Z,71.03
2023-01-07T09:16:21.947Z,71.46
2023-01-07T09:18:50.124Z,71.63
2023-01-07T09:21:16.607Z,68.63
2023-01-07T09:23:43.056Z,71.90
2023-01-07T09:26:09.810Z,71.98
2023-01-07T09:28:36.315Z,71.97
2023-01-07T09:31:05.586Z,71.99
2023-01-07T09:33:32.360Z,72.17
2023-01-07T09:35:58.851Z,72.10
2023-01-07T09:38:25.506Z,71.41
2023-01-07T09:40:53.042Z,71.41
2023-01-07T09:44:01.184Z,69.01
2023-01-07T09:46:28.433Z,72.15
2023-01-07T09:49:00.471Z,71.29
2023-01-07T09:51:40.684Z,70.96
2023-01-07T09:54:27.482Z,70.65
2023-01-07T09:56:54.460Z,71.50
2023-01-07T09:59:21.218Z,71.39
2023-01-07T10:01:55.108Z,71.47
2023-01-07T10:04:35.089Z,69.52
2023-01-07T10:07:27.096Z,69.00
2023-01-07T10:09:53.877Z,71.83
2023-01-07T10:12:30.647Z,71.98
2023-01-07T10:15:19.806Z,70.15
2023-01-07T10:18:10.728Z,70.10
2023-01-07T10:20:50.676Z,69.77
2023-01-07T10:23:22.552Z,70.46
2023-01-07T10:25:51.882Z,71.38
2023-01-07T10:28:25.211Z,70.40
2023-01-07T10:30:51.749Z,71.38
2023-01-07T10:33:24.515Z,70.72
2023-01-07T10:36:08.941Z,69.30
2023-01-07T10:38:41.109Z,70.64
2023-01-07T10:41:18.096Z,69.99
2023-01-07T10:44:09.619Z,67.85
2023-01-07T10:46:45.263Z,71.52
2023-01-07T10:49:45.396Z,69.18
2023-01-07T10:52:35.360Z,66.71
2023-01-07T10:55:36.455Z,66.47
2023-01-07T10:58:03.939Z,71.04
2023-01-07T11:00:30.622Z,69.44
2023-01-07T11:02:59.241Z,69.89
2023-01-07T11:05:38.883Z,68.56
2023-01-07T11:08:15.901Z,68.45
2023-01-07T11:10:42.805Z,70.41
2023-01-07T11:13:29.837Z,63.68
2023-01-07T11:16:01.537Z,66.88
2023-01-07T11:18:39.428Z,66.36
2023-01-07T11:21:06.034Z,68.56
2023-01-07T11:23:40.127Z,68.95
2023-01-07T11:26:26.499Z,65.64
2023-01-07T11:28:56.524Z,67.12
2023-01-07T11:31:42.875Z,66.88
2023-01-07T11:34:32.079Z,64.70
2023-01-07T11:36:58.598Z,67.58
2023-01-07T11:39:28.256Z,67.39
2023-01-07T11:41:57.827Z,67.14
2023-01-07T11:44:24.893Z,66.50
2023-01-07T11:46:52.731Z,66.79
2023-01-07T11:49:23.862Z,65.33
2023-01-07T11:51:50.914Z,67.01
2023-01-07T11:54:23.855Z,64.13
2023-01-07T11:56:51.429Z,67.03
2023-01-07T11:59:18.864Z,66.67
2023-01-07T12:01:50.816Z,66.06
2023-01-07T12:04:29.751Z,62.58
2023-01-07T12:07:00.217Z,65.14
2023-01-07T12:09:38.840Z,63.92
2023-01-07T12:12:12.971Z,62.70
2023-01-07T12:14:39.713Z,66.25
2023-01-07T12:17:10.544Z,65.25
2023-01-07T12:20:10.816Z,64.51
2023-01-07T12:23:04.363Z,65.36
2023-01-07T12:26:11.964Z,62.35
2023-01-07T12:28:57.138Z,62.00
2023-01-07T12:32:14.406Z,61.79
2023-01-07T12:35:14.965Z,61.20
2023-01-07T12:37:48.529Z,62.50
2023-01-07T12:40:18.566Z,64.94
2023-01-07T12:42:52.771Z,62.29
2023-01-07T12:45:36.239Z,61.27
2023-01-07T12:48:10.711Z,64.84
2023-01-07T12:50:47.618Z,60.60
2023-01-07T12:53:55.351Z,62.75
2023-01-07T12:56:29.136Z,61.83
2023-01-07T12:59:45.659Z,62.86
2023-01-07T13:02:25.152Z,60.65
2023-01-07T13:05:15.760Z,61.72
2023-01-07T13:07:42.183Z,64.39
2023-01-07T13:10:20.741Z,61.30
2023-01-07T13:12:49.108Z,64.07
2023-01-07T13:15:21.671Z,61.69
2023-01-07T13:17:50.644Z,64.92
2023-01-07T13:20:27.970Z,63.52
2023-01-07T13:22:56.745Z,63.82
2023-01-07T13:25:46.427Z,58.25
2023-01-07T13:28:28.694Z,63.04
2023-01-07T13:31:33.425Z,61.49
2023-01-07T13:34:33.584Z,62.32
2023-01-07T13:37:24.767Z,62.57
2023-01-07T13:40:12.905Z,62.57
2023-01-07T13:42:48.902Z,63.81
2023-01-07T13:45:27.084Z,65.13
2023-01-07T13:47:57.285Z,64.11
2023-01-07T13:50:25.649Z,64.25
2023-01-07T13:53:02.271Z,62.20
2023-01-07T13:55:43.151Z,60.54
2023-01-07T13:58:31.466Z,63.08
2023-01-07T14:01:10.020Z,62.86
2023-01-07T14:03:44.516Z,63.70
2023-01-07T14:06:19.589Z,63.64
2023-01-07T14:08:50.039Z,64.74
2023-01-07T14:11:18.824Z,65.93
2023-01-07T14:13:55.847Z,63.97
2023-01-07T14:16:33.862Z,63.51
2023-01-07T14:19:16.163Z,63.27
2023-01-07T14:22:02.675Z,66.14
2023-01-07T14:24:47.693Z,63.09
2023-01-07T14:27:40.603Z,63.29
2023-01-07T14:30:25.368Z,61.55
2023-01-07T14:33:05.898Z,63.31
2023-01-07T14:35:42.892Z,62.15
2023-01-07T14:38:28.120Z,62.95
2023-01-07T14:41:04.180Z,63.98
2023-01-07T14:43:43.101Z,64.12
2023-01-07T14:46:21.904Z,63.77
2023-01-07T14:49:00.134Z,63.79
2023-01-07T14:51:58.303Z,64.07
2023-01-07T14:54:46.343Z,63.69
2023-01-07T14:57:42.752Z,63.61
2023-01-07T15:00:31.934Z,66.44
2023-01-07T15:03:27.958Z,63.67
2023-01-07T15:05:58.508Z,64.69
2023-01-07T15:08:28.816Z,65.49
2023-01-07T15:10:58.926Z,65.97
2023-01-07T15:13:25.879Z,66.37
2023-01-07T15:15:55.241Z,65.57
2023-01-07T15:18:22.638Z,66.32
2023-01-07T15:21:07.931Z,64.00
2023-01-07T15:23:53.498Z,64.02
2023-01-07T15:26:44.290Z,64.43
2023-01-07T15:29:18.881Z,64.38
2023-01-07T15:31:57.496Z,64.24
2023-01-07T15:34:30.223Z,65.07
2023-01-07T15:36:57.596Z,65.88
2023-01-07T15:39:28.599Z,65.60
2023-01-07T15:41:57.403Z,65.49
2023-01-07T15:44:29.022Z,65.31
2023-01-07T15:46:55.939Z,65.60
2023-01-07T15:49:27.348Z,64.59
2023-01-07T15:51:56.415Z,65.46
2023-01-07T15:54:36.784Z,64.32
2023-01-07T15:57:28.322Z,64.46
2023-01-07T15:59:55.892Z,65.79
2023-01-07T16:02:28.449Z,64.84
2023-01-07T16:04:58.776Z,65.24
2023-01-07T16:07:32.533Z,65.17
2023-01-07T16:10:00.193Z,65.70
2023-01-07T16:12:29.683Z,65.37
2023-01-07T16:14:56.528Z,65.62
2023-01-07T16:17:23.074Z,65.71
2023-01-07T16:19:49.770Z,65.57
2023-01-07T16:22:21.363Z,65.17
2023-01-07T16:24:53.348Z,65.10
2023-01-07T16:27:29.104Z,64.91
2023-01-07T16:29:58.757Z,65.76
2023-01-07T16:32:26.695Z,65.94
2023-01-07T16:34:59.303Z,65.68
2023-01-07T16:37:26.861Z,66.14
2023-01-07T16:39:54.125Z,66.12
2023-01-07T16:42:22.035Z,66.05
2023-01-07T16:44:54.625Z,65.32
2023-01-07T16:47:27.131Z,65.45
2023-01-07T16:49:55.818Z,65.87
2023-01-07T16:52:26.515Z,66.03
2023-01-07T16:54:53.068Z,66.05
2023-01-07T16:57:30.035Z,65.14
2023-01-07T16:59:58.611Z,66.06
2023-01-07T17:02:33.488Z,65.58
2023-01-07T17:05:15.040Z,65.37
2023-01-07T17:07:46.408Z,65.99
2023-01-07T17:10:39.877Z,65.26
2023-01-07T17:13:15.009Z,65.62
2023-01-07T17:15:42.879Z,66.23
2023-01-07T17:18:12.440Z,65.68
2023-01-07T17:20:47.814Z,65.68
2023-01-07T17:23:26.636Z,65.39
2023-01-07T17:25:57.749Z,65.93
2023-01-07T17:28:26.215Z,66.22
2023-01-07T17:30:53.668Z,66.32
2023-01-07T17:33:23.412Z,66.10
2023-01-07T17:35:51.287Z,66.25
2023-01-07T17:38:18.235Z,66.26
2023-01-07T17:40:45.592Z,66.40
2023-01-07T17:43:20.830Z,66.07
2023-01-07T17:45:47.484Z,66.43
2023-01-07T17:48:14.233Z,66.39
2023-01-07T17:50:41.945Z,66.48
2023-01-07T17:53:21.902Z,65.80
2023-01-07T17:55:48.531Z,66.64
2023-01-07T17:58:25.802Z,66.08
2023-01-07T18:00:52.403Z,66.46
2023-01-07T18:03:19.013Z,66.66
2023-01-07T18:05:45.578Z,66.39
2023-01-07T18:08:12.067Z,66.50
2023-01-07T18:10:38.614Z,66.58
2023-01-07T18:13:05.073Z,66.65
2023-01-07T18:15:31.641Z,66.47
2023-01-07T18:17:58.158Z,66.48
2023-01-07T18:20:24.677Z,66.64
2023-01-07T18:22:51.265Z,66.63
2023-01-07T18:25:20.735Z,66.30
2023-01-07T18:27:48.859Z,66.75
2023-01-07T18:30:16.586Z,65.75
2023-01-07T18:32:46.203Z,66.73
2023-01-07T18:35:13.220Z,66.82
2023-01-07T18:37:40.060Z,66.75
2023-01-07T18:40:08.192Z,66.93
2023-01-07T18:42:35.212Z,66.03
2023-01-07T18:45:02.543Z,67.03
2023-01-07T18:47:29.121Z,66.82
2023-01-07T18:49:55.930Z,67.07
2023-01-07T18:52:22.567Z,66.96
2023-01-07T18:54:49.115Z,67.16
2023-01-07T18:57:15.781Z,67.15
2023-01-07T18:59:42.297Z,67.23
2023-01-07T19:02:18.652Z,66.53
2023-01-07T19:04:47.113Z,67.21
2023-01-07T19:07:14.167Z,67.26
2023-01-07T19:09:40.677Z,67.32
2023-01-07T19:12:07.473Z,67.24
2023-01-07T19:14:34.722Z,67.03
2023-01-07T19:17:01.429Z,67.00
2023-01-07T19:19:32.072Z,66.96
2023-01-07T19:22:00.923Z,66.85
2023-01-07T19:24:27.484Z,67.24
2023-01-07T19:26:54.081Z,67.29
2023-01-07T19:29:20.730Z,67.33
2023-01-07T19:31:47.455Z,67.53
2023-01-07T19:34:14.776Z,67.33
2023-01-07T19:36:42.201Z,67.52
2023-01-07T19:39:16.030Z,67.09
2023-01-07T19:41:43.257Z,67.46
2023-01-07T19:44:10.353Z,67.61
2023-01-07T19:46:37.357Z,67.49
2023-01-07T19:49:05.633Z,67.56
2023-01-07T19:51:35.949Z,67.52
2023-01-07T19:54:03.703Z,67.52
2023-01-07T19:56:30.272Z,67.37
2023-01-07T19:58:57.665Z,67.45
2023-01-07T20:01:25.226Z,67.60
2023-01-07T20:03:53.057Z,67.46
2023-01-07T20:06:22.606Z,67.35
2023-01-07T20:08:52.644Z,67.22
2023-01-07T20:11:19.214Z,67.76
2023-01-07T20:13:46.994Z,67.57
2023-01-07T20:16:18.694Z,66.93
2023-01-07T20:18:47.390Z,67.39
2023-01-07T20:21:16.384Z,67.44
2023-01-07T20:23:43.534Z,67.71
2023-01-07T20:26:13.478Z,67.45
2023-01-07T20:28:40.575Z,67.43
2023-01-07T20:31:09.694Z,67.51
2023-01-07T20:33:37.071Z,67.48
2023-01-07T20:36:13.202Z,67.08
2023-01-07T20:38:40.143Z,67.55
2023-01-07T20:41:08.904Z,67.55
2023-01-07T20:43:36.663Z,67.60
2023-01-07T20:46:06.466Z,67.71
2023-01-07T20:48:34.054Z,67.85
2023-01-07T20:51:06.020Z,67.63
2023-01-07T20:53:32.806Z,67.87
2023-01-07T20:56:00.591Z,68.12
2023-01-07T20:58:29.870Z,67.88
2023-01-07T21:00:56.631Z,67.95
2023-01-07T21:03:23.227Z,68.02
2023-01-07T21:05:49.811Z,68.10
2023-01-07T21:08:16.414Z,68.21
2023-01-07T21:10:42.886Z,68.01
2023-01-07T21:13:09.447Z,67.99
2023-01-07T21:15:35.918Z,68.16
2023-01-07T21:18:02.484Z,67.99
2023-01-07T21:20:29.001Z,67.93
2023-01-07T21:22:55.510Z,68.06
2023-01-07T21:25:21.976Z,67.87
2023-01-07T21:27:48.463Z,68.23
2023-01-07T21:30:15.402Z,68.12
2023-01-07T21:32:42.239Z,68.37
2023-01-07T21:35:10.517Z,68.21
2023-01-07T21:37:37.217Z,68.41
2023-01-07T21:40:04.908Z,68.56
2023-01-07T21:42:31.783Z,68.80
2023-01-07T21:44:58.250Z,68.49
2023-01-07T21:47:24.934Z,68.72
2023-01-07T21:49:51.420Z,68.70
2023-01-07T21:52:18.472Z,68.59
2023-01-07T21:54:46.114Z,68.78
2023-01-07T21:57:12.754Z,68.91
2023-01-07T21:59:39.455Z,69.04
2023-01-07T22:02:06.165Z,68.91
2023-01-07T22:04:32.815Z,69.06
2023-01-07T22:06:59.306Z,68.78
2023-01-07T22:09:25.817Z,68.62
2023-01-07T22:11:52.489Z,68.67
2023-01-07T22:14:19.141Z,68.66
2023-01-07T22:16:49.304Z,68.31
2023-01-07T22:19:16.057Z,68.56
2023-01-07T22:21:42.600Z,68.59
2023-01-07T22:24:09.425Z,68.60
2023-01-07T22:26:36.091Z,68.26
2023-01-07T22:29:06.489Z,68.41
2023-01-07T22:31:35.529Z,68.16
2023-01-07T22:34:02.626Z,68.33
2023-01-07T22:36:36.732Z,67.67
2023-01-07T22:39:10.290Z,67.88
2023-01-07T22:41:37.320Z,68.14
2023-01-07T22:44:09.167Z,67.97
2023-01-07T22:46:38.093Z,67.96
2023-01-07T22:49:05.820Z,68.02
2023-01-07T22:51:38.851Z,67.59
2023-01-07T22:54:06.273Z,68.08
2023-01-07T22:56:34.158Z,67.99
2023-01-07T22:59:00.820Z,67.93
2023-01-07T23:01:27.573Z,67.87
2023-01-07T23:03:54.151Z,67.84
2023-01-07T23:06:21.430Z,67.82
2023-01-07T23:08:47.958Z,67.98
2023-01-07T23:11:14.616Z,68.06
2023-01-07T23:13:41.107Z,68.07
2023-01-07T23:16:08.099Z,68.10
2023-01-07T23:18:34.881Z,67.99
2023-01-07T23:21:04.479Z,67.74
2023-01-07T23:23:31.071Z,68.04
2023-01-07T23:25:57.656Z,67.97
2023-01-07T23:28:24.312Z,68.19
2023-01-07T23:30:50.929Z,67.88
2023-01-07T23:33:17.407Z,68.11
2023-01-07T23:35:44.018Z,68.04
2023-01-07T23:38:10.635Z,68.05
2023-01-07T23:40:37.257Z,68.15
2023-01-07T23:43:03.806Z,68.04
2023-01-07T23:45:30.397Z,67.98
2023-01-07T23:47:57.028Z,68.18
2023-01-07T23:50:23.592Z,68.03
2023-01-07T23:52:50.088Z,68.08
2023-01-07T23:55:16.655Z,67.99
2023-01-07T23:57:43.303Z,68.06
